sensor_id;sensor_type;location;lat;lon;timestamp;pressure;altitude;pressure_sealevel;temperature;humidity
50292;BME280;36190;54.980;73.388;2024-02-14T00:00:21;98674.53;;;-6.45;87.57
50292;BME280;36190;54.980;73.388;2024-02-14T00:02:50;98676.31;;;-6.46;87.65
50292;BME280;36190;54.980;73.388;2024-02-14T00:05:18;98661.66;;;-6.47;87.49
50292;BME280;36190;54.980;73.388;2024-02-14T00:07:46;98663.31;;;-6.46;87.61
50292;BME280;36190;54.980;73.388;2024-02-14T00:10:14;98659.78;;;-6.45;87.84
50292;BME280;36190;54.980;73.388;2024-02-14T00:12:41;98660.94;;;-6.49;87.90
50292;BME280;36190;54.980;73.388;2024-02-14T00:15:10;98642.34;;;-6.56;87.99
50292;BME280;36190;54.980;73.388;2024-02-14T00:17:39;98643.81;;;-6.52;88.49
50292;BME280;36190;54.980;73.388;2024-02-14T00:20:09;98657.59;;;-6.51;88.47
50292;BME280;36190;54.980;73.388;2024-02-14T00:22:38;98668.72;;;-6.49;88.41
50292;BME280;36190;54.980;73.388;2024-02-14T00:25:07;98654.19;;;-6.52;88.50
50292;BME280;36190;54.980;73.388;2024-02-14T00:27:35;98655.22;;;-6.54;88.60
50292;BME280;36190;54.980;73.388;2024-02-14T00:30:03;98648.38;;;-6.55;88.65
50292;BME280;36190;54.980;73.388;2024-02-14T00:32:31;98650.97;;;-6.55;88.79
50292;BME280;36190;54.980;73.388;2024-02-14T00:35:01;98640.69;;;-6.57;88.43
50292;BME280;36190;54.980;73.388;2024-02-14T00:37:28;98650.25;;;-6.57;88.40
50292;BME280;36190;54.980;73.388;2024-02-14T00:39:56;98651.69;;;-6.53;88.10
50292;BME280;36190;54.980;73.388;2024-02-14T00:42:24;98657.09;;;-6.56;87.86
50292;BME280;36190;54.980;73.388;2024-02-14T00:44:51;98647.03;;;-6.61;87.73
50292;BME280;36190;54.980;73.388;2024-02-14T00:47:19;98655.84;;;-6.64;87.61
50292;BME280;36190;54.980;73.388;2024-02-14T00:49:47;98651.47;;;-6.63;87.38
50292;BME280;36190;54.980;73.388;2024-02-14T00:52:16;98660.38;;;-6.67;86.93
50292;BME280;36190;54.980;73.388;2024-02-14T00:54:44;98645.84;;;-6.70;86.03
50292;BME280;36190;54.980;73.388;2024-02-14T00:57:11;98667.63;;;-6.72;85.32
50292;BME280;36190;54.980;73.388;2024-02-14T00:59:39;98646.25;;;-6.76;85.15
50292;BME280;36190;54.980;73.388;2024-02-14T01:02:07;98648.97;;;-6.78;85.25
50292;BME280;36190;54.980;73.388;2024-02-14T01:04:35;98651.25;;;-6.73;84.51
50292;BME280;36190;54.980;73.388;2024-02-14T01:07:03;98661.31;;;-6.81;84.55
50292;BME280;36190;54.980;73.388;2024-02-14T01:09:33;98659.09;;;-6.87;84.11
50292;BME280;36190;54.980;73.388;2024-02-14T01:12:02;98642.91;;;-6.91;84.10
50292;BME280;36190;54.980;73.388;2024-02-14T01:14:31;98685.63;;;-6.97;84.25
50292;BME280;36190;54.980;73.388;2024-02-14T01:16:59;98659.16;;;-7.02;83.72
50292;BME280;36190;54.980;73.388;2024-02-14T01:19:26;98647.44;;;-7.08;84.08
50292;BME280;36190;54.980;73.388;2024-02-14T01:21:55;98637.53;;;-7.15;84.19
50292;BME280;36190;54.980;73.388;2024-02-14T01:24:24;98637.00;;;-7.21;84.33
50292;BME280;36190;54.980;73.388;2024-02-14T01:26:54;98627.66;;;-7.23;84.35
50292;BME280;36190;54.980;73.388;2024-02-14T01:29:22;98621.13;;;-7.29;83.93
50292;BME280;36190;54.980;73.388;2024-02-14T01:31:50;98628.19;;;-7.31;83.75
50292;BME280;36190;54.980;73.388;2024-02-14T01:34:17;98630.94;;;-7.34;83.57
50292;BME280;36190;54.980;73.388;2024-02-14T01:36:46;98618.19;;;-7.37;83.62
50292;BME280;36190;54.980;73.388;2024-02-14T01:39:14;98652.69;;;-7.37;83.72
50292;BME280;36190;54.980;73.388;2024-02-14T01:41:44;98632.16;;;-7.40;83.92
50292;BME280;36190;54.980;73.388;2024-02-14T01:44:15;98636.72;;;-7.43;83.97
50292;BME280;36190;54.980;73.388;2024-02-14T01:46:43;98631.75;;;-7.47;84.13
50292;BME280;36190;54.980;73.388;2024-02-14T01:49:11;98646.44;;;-7.47;84.31
50292;BME280;36190;54.980;73.388;2024-02-14T01:51:42;98656.38;;;-7.54;83.94
50292;BME280;36190;54.980;73.388;2024-02-14T01:54:11;98651.94;;;-7.66;83.70
50292;BME280;36190;54.980;73.388;2024-02-14T01:56:40;98657.88;;;-7.79;83.50
50292;BME280;36190;54.980;73.388;2024-02-14T01:59:09;98679.53;;;-7.94;83.24
50292;BME280;36190;54.980;73.388;2024-02-14T02:01:38;98661.78;;;-8.01;82.82
50292;BME280;36190;54.980;73.388;2024-02-14T02:04:07;98696.16;;;-8.13;82.98
50292;BME280;36190;54.980;73.388;2024-02-14T02:06:35;98681.00;;;-8.19;83.15
50292;BME280;36190;54.980;73.388;2024-02-14T02:09:03;98700.97;;;-8.21;83.11
50292;BME280;36190;54.980;73.388;2024-02-14T02:11:42;98714.81;;;-8.22;83.23
50292;BME280;36190;54.980;73.388;2024-02-14T02:14:10;98715.06;;;-8.27;83.10
50292;BME280;36190;54.980;73.388;2024-02-14T02:16:40;98713.75;;;-8.34;83.35
50292;BME280;36190;54.980;73.388;2024-02-14T02:19:07;98727.91;;;-8.40;83.50
50292;BME280;36190;54.980;73.388;2024-02-14T02:21:35;98691.78;;;-8.42;83.52
50292;BME280;36190;54.980;73.388;2024-02-14T02:24:05;98724.75;;;-8.45;83.91
50292;BME280;36190;54.980;73.388;2024-02-14T02:26:33;98714.78;;;-8.51;83.88
50292;BME280;36190;54.980;73.388;2024-02-14T02:29:00;98714.06;;;-8.53;84.08
50292;BME280;36190;54.980;73.388;2024-02-14T02:31:28;98729.91;;;-8.60;84.21
50292;BME280;36190;54.980;73.388;2024-02-14T02:33:56;98704.41;;;-8.66;84.18
50292;BME280;36190;54.980;73.388;2024-02-14T02:36:23;98749.81;;;-8.76;84.09
50292;BME280;36190;54.980;73.388;2024-02-14T02:38:51;98710.03;;;-8.90;84.11
50292;BME280;36190;54.980;73.388;2024-02-14T02:41:20;98739.25;;;-9.04;84.51
50292;BME280;36190;54.980;73.388;2024-02-14T02:43:48;98730.22;;;-9.13;84.71
50292;BME280;36190;54.980;73.388;2024-02-14T02:46:16;98752.31;;;-9.23;84.77
50292;BME280;36190;54.980;73.388;2024-02-14T02:48:44;98726.16;;;-9.33;84.04
50292;BME280;36190;54.980;73.388;2024-02-14T02:51:15;98742.41;;;-9.47;83.67
50292;BME280;36190;54.980;73.388;2024-02-14T02:53:43;98739.31;;;-9.54;83.39
50292;BME280;36190;54.980;73.388;2024-02-14T02:56:11;98752.28;;;-9.55;83.18
50292;BME280;36190;54.980;73.388;2024-02-14T02:58:42;98742.97;;;-9.58;83.00
50292;BME280;36190;54.980;73.388;2024-02-14T03:01:10;98729.91;;;-9.55;82.70
50292;BME280;36190;54.980;73.388;2024-02-14T03:03:38;98747.97;;;-9.55;82.45
50292;BME280;36190;54.980;73.388;2024-02-14T03:06:07;98786.97;;;-9.59;81.87
50292;BME280;36190;54.980;73.388;2024-02-14T03:08:34;98739.81;;;-9.63;81.63
50292;BME280;36190;54.980;73.388;2024-02-14T03:11:04;98722.13;;;-9.71;81.67
50292;BME280;36190;54.980;73.388;2024-02-14T03:13:32;98727.28;;;-9.71;81.60
50292;BME280;36190;54.980;73.388;2024-02-14T03:16:03;98749.69;;;-9.71;81.29
50292;BME280;36190;54.980;73.388;2024-02-14T03:18:31;98739.63;;;-9.76;80.78
50292;BME280;36190;54.980;73.388;2024-02-14T03:20:59;98755.25;;;-9.79;80.65
50292;BME280;36190;54.980;73.388;2024-02-14T03:23:27;98741.53;;;-9.79;80.11
50292;BME280;36190;54.980;73.388;2024-02-14T03:25:55;98756.09;;;-9.78;79.79
50292;BME280;36190;54.980;73.388;2024-02-14T03:28:22;98750.38;;;-9.85;79.11
50292;BME280;36190;54.980;73.388;2024-02-14T03:30:50;98761.88;;;-9.91;78.61
50292;BME280;36190;54.980;73.388;2024-02-14T03:33:20;98766.59;;;-9.99;78.20
50292;BME280;36190;54.980;73.388;2024-02-14T03:35:48;98753.78;;;-10.01;77.98
50292;BME280;36190;54.980;73.388;2024-02-14T03:38:25;98770.16;;;-10.02;77.82
50292;BME280;36190;54.980;73.388;2024-02-14T03:40:53;98759.84;;;-10.02;77.28
50292;BME280;36190;54.980;73.388;2024-02-14T03:43:21;98752.19;;;-10.03;77.36
50292;BME280;36190;54.980;73.388;2024-02-14T03:45:49;98749.38;;;-9.99;77.42
50292;BME280;36190;54.980;73.388;2024-02-14T03:48:19;98755.13;;;-9.94;77.02
50292;BME280;36190;54.980;73.388;2024-02-14T03:50:46;98753.63;;;-9.98;76.86
50292;BME280;36190;54.980;73.388;2024-02-14T03:53:14;98805.69;;;-9.89;76.48
50292;BME280;36190;54.980;73.388;2024-02-14T03:55:43;98761.19;;;-9.95;76.36
50292;BME280;36190;54.980;73.388;2024-02-14T03:58:11;98775.94;;;-9.97;76.21
50292;BME280;36190;54.980;73.388;2024-02-14T04:00:40;98745.38;;;-10.04;76.11
50292;BME280;36190;54.980;73.388;2024-02-14T04:03:12;98766.00;;;-10.04;76.14
50292;BME280;36190;54.980;73.388;2024-02-14T04:05:41;98760.91;;;-10.06;75.89
50292;BME280;36190;54.980;73.388;2024-02-14T04:08:08;98772.97;;;-10.06;75.13
50292;BME280;36190;54.980;73.388;2024-02-14T04:10:36;98824.66;;;-10.08;74.16
50292;BME280;36190;54.980;73.388;2024-02-14T04:13:05;98785.59;;;-10.18;73.39
50292;BME280;36190;54.980;73.388;2024-02-14T04:15:32;98807.38;;;-10.24;72.88
50292;BME280;36190;54.980;73.388;2024-02-14T04:18:00;98800.84;;;-10.31;71.93
50292;BME280;36190;54.980;73.388;2024-02-14T04:20:29;98795.81;;;-10.34;71.82
50292;BME280;36190;54.980;73.388;2024-02-14T04:22:59;98789.84;;;-10.52;71.57
50292;BME280;36190;54.980;73.388;2024-02-14T04:25:27;98812.59;;;-10.43;71.51
50292;BME280;36190;54.980;73.388;2024-02-14T04:27:54;98854.84;;;-10.45;71.20
50292;BME280;36190;54.980;73.388;2024-02-14T04:30:22;98811.63;;;-10.58;71.31
50292;BME280;36190;54.980;73.388;2024-02-14T04:32:50;98808.25;;;-10.60;71.17
50292;BME280;36190;54.980;73.388;2024-02-14T04:35:19;98820.53;;;-10.65;71.28
50292;BME280;36190;54.980;73.388;2024-02-14T04:37:47;98817.34;;;-10.70;71.04
50292;BME280;36190;54.980;73.388;2024-02-14T04:40:17;98831.28;;;-10.74;70.88
50292;BME280;36190;54.980;73.388;2024-02-14T04:42:44;98847.09;;;-10.82;70.62
50292;BME280;36190;54.980;73.388;2024-02-14T04:45:12;98865.19;;;-10.84;70.34
50292;BME280;36190;54.980;73.388;2024-02-14T04:47:40;98856.97;;;-10.92;70.28
50292;BME280;36190;54.980;73.388;2024-02-14T04:50:09;98843.22;;;-10.91;69.97
50292;BME280;36190;54.980;73.388;2024-02-14T04:52:37;98850.16;;;-10.93;70.39
50292;BME280;36190;54.980;73.388;2024-02-14T04:55:05;98844.34;;;-10.79;70.14
50292;BME280;36190;54.980;73.388;2024-02-14T04:57:34;98862.81;;;-10.69;69.92
50292;BME280;36190;54.980;73.388;2024-02-14T05:00:03;98843.09;;;-10.70;69.81
50292;BME280;36190;54.980;73.388;2024-02-14T05:02:31;98902.81;;;-10.60;69.61
50292;BME280;36190;54.980;73.388;2024-02-14T05:04:59;98898.63;;;-10.63;69.89
50292;BME280;36190;54.980;73.388;2024-02-14T05:07:27;98890.19;;;-10.67;70.25
50292;BME280;36190;54.980;73.388;2024-02-14T05:09:55;98889.00;;;-10.59;70.31
50292;BME280;36190;54.980;73.388;2024-02-14T05:12:22;98879.47;;;-10.57;69.84
50292;BME280;36190;54.980;73.388;2024-02-14T05:14:52;98907.41;;;-10.67;69.94
50292;BME280;36190;54.980;73.388;2024-02-14T05:17:19;98858.78;;;-10.75;70.04
50292;BME280;36190;54.980;73.388;2024-02-14T05:19:47;98902.81;;;-10.80;70.07
50292;BME280;36190;54.980;73.388;2024-02-14T05:22:15;98909.50;;;-10.75;69.41
50292;BME280;36190;54.980;73.388;2024-02-14T05:24:43;98907.34;;;-10.85;68.75
50292;BME280;36190;54.980;73.388;2024-02-14T05:27:10;98880.88;;;-10.88;69.08
50292;BME280;36190;54.980;73.388;2024-02-14T05:29:38;98897.94;;;-10.86;68.60
50292;BME280;36190;54.980;73.388;2024-02-14T05:32:08;98875.81;;;-10.90;68.49
50292;BME280;36190;54.980;73.388;2024-02-14T05:34:36;98897.31;;;-10.91;67.86
50292;BME280;36190;54.980;73.388;2024-02-14T05:37:04;98963.53;;;-10.93;67.49
50292;BME280;36190;54.980;73.388;2024-02-14T05:39:33;98913.72;;;-11.13;68.25
50292;BME280;36190;54.980;73.388;2024-02-14T05:42:01;98891.66;;;-11.19;68.50
50292;BME280;36190;54.980;73.388;2024-02-14T05:44:30;98912.38;;;-11.22;68.41
50292;BME280;36190;54.980;73.388;2024-02-14T05:46:58;98967.56;;;-11.07;68.43
50292;BME280;36190;54.980;73.388;2024-02-14T05:49:27;98985.94;;;-10.95;69.02
50292;BME280;36190;54.980;73.388;2024-02-14T05:51:55;98936.34;;;-11.00;69.27
50292;BME280;36190;54.980;73.388;2024-02-14T05:54:23;98948.03;;;-11.12;69.70
50292;BME280;36190;54.980;73.388;2024-02-14T05:56:51;98949.06;;;-11.37;69.98
50292;BME280;36190;54.980;73.388;2024-02-14T05:59:19;98930.38;;;-11.62;70.08
50292;BME280;36190;54.980;73.388;2024-02-14T06:01:47;98973.47;;;-11.67;70.02
50292;BME280;36190;54.980;73.388;2024-02-14T06:04:14;98973.47;;;-11.67;69.09
50292;BME280;36190;54.980;73.388;2024-02-14T06:06:44;98963.50;;;-11.75;68.70
50292;BME280;36190;54.980;73.388;2024-02-14T06:09:11;98937.44;;;-11.67;69.12
50292;BME280;36190;54.980;73.388;2024-02-14T06:11:39;98954.25;;;-11.58;69.19
50292;BME280;36190;54.980;73.388;2024-02-14T06:14:08;98935.28;;;-11.36;69.06
50292;BME280;36190;54.980;73.388;2024-02-14T06:16:36;98960.19;;;-11.16;69.27
50292;BME280;36190;54.980;73.388;2024-02-14T06:19:04;98969.28;;;-10.86;69.25
50292;BME280;36190;54.980;73.388;2024-02-14T06:21:32;98958.84;;;-10.64;68.59
50292;BME280;36190;54.980;73.388;2024-02-14T06:24:01;98993.66;;;-10.74;66.62
50292;BME280;36190;54.980;73.388;2024-02-14T06:26:30;99012.75;;;-10.99;66.11
50292;BME280;36190;54.980;73.388;2024-02-14T06:28:59;98983.38;;;-11.16;67.01
50292;BME280;36190;54.980;73.388;2024-02-14T06:31:26;98978.22;;;-11.16;67.88
50292;BME280;36190;54.980;73.388;2024-02-14T06:33:54;99016.34;;;-11.03;67.71
50292;BME280;36190;54.980;73.388;2024-02-14T06:36:22;98984.28;;;-11.17;67.27
50292;BME280;36190;54.980;73.388;2024-02-14T06:38:49;98984.22;;;-11.15;67.35
50292;BME280;36190;54.980;73.388;2024-02-14T06:41:19;98983.66;;;-11.22;67.74
50292;BME280;36190;54.980;73.388;2024-02-14T06:43:46;99014.63;;;-11.03;68.22
50292;BME280;36190;54.980;73.388;2024-02-14T06:46:14;98998.97;;;-10.98;68.41
50292;BME280;36190;54.980;73.388;2024-02-14T06:48:42;98995.63;;;-11.21;69.08
50292;BME280;36190;54.980;73.388;2024-02-14T06:51:09;99077.38;;;-11.47;68.93
50292;BME280;36190;54.980;73.388;2024-02-14T06:53:37;99059.88;;;-11.83;68.79
50292;BME280;36190;54.980;73.388;2024-02-14T06:56:06;99041.22;;;-12.11;67.81
50292;BME280;36190;54.980;73.388;2024-02-14T06:58:35;99059.06;;;-12.30;67.83
50292;BME280;36190;54.980;73.388;2024-02-14T07:01:03;99040.84;;;-12.24;68.37
50292;BME280;36190;54.980;73.388;2024-02-14T07:03:31;99083.75;;;-12.02;68.09
50292;BME280;36190;54.980;73.388;2024-02-14T07:05:59;99095.19;;;-12.09;67.48
50292;BME280;36190;54.980;73.388;2024-02-14T07:08:27;99044.88;;;-12.40;68.62
50292;BME280;36190;54.980;73.388;2024-02-14T07:10:54;99078.06;;;-12.58;69.15
50292;BME280;36190;54.980;73.388;2024-02-14T07:13:22;99068.84;;;-12.89;69.05
50292;BME280;36190;54.980;73.388;2024-02-14T07:15:51;99096.84;;;-13.07;68.70
50292;BME280;36190;54.980;73.388;2024-02-14T07:18:19;99080.66;;;-13.09;68.56
50292;BME280;36190;54.980;73.388;2024-02-14T07:20:47;99078.53;;;-12.98;68.40
50292;BME280;36190;54.980;73.388;2024-02-14T07:23:15;99118.81;;;-12.73;68.33
50292;BME280;36190;54.980;73.388;2024-02-14T07:25:43;99097.56;;;-12.52;67.50
50292;BME280;36190;54.980;73.388;2024-02-14T07:28:10;99108.56;;;-12.49;66.66
50292;BME280;36190;54.980;73.388;2024-02-14T07:30:38;99095.56;;;-12.44;66.47
50292;BME280;36190;54.980;73.388;2024-02-14T07:33:07;99105.50;;;-12.35;65.75
50292;BME280;36190;54.980;73.388;2024-02-14T07:35:36;99100.88;;;-12.25;65.44
50292;BME280;36190;54.980;73.388;2024-02-14T07:38:04;99113.97;;;-12.07;64.68
50292;BME280;36190;54.980;73.388;2024-02-14T07:40:32;99244.34;;;-12.09;64.22
50292;BME280;36190;54.980;73.388;2024-02-14T07:42:59;99195.28;;;-12.28;63.07
50292;BME280;36190;54.980;73.388;2024-02-14T07:45:28;99154.75;;;-12.71;61.81
50292;BME280;36190;54.980;73.388;2024-02-14T07:47:56;99177.59;;;-13.16;61.97
50292;BME280;36190;54.980;73.388;2024-02-14T07:50:25;99189.19;;;-13.32;62.65
50292;BME280;36190;54.980;73.388;2024-02-14T07:52:53;99155.22;;;-13.41;62.39
50292;BME280;36190;54.980;73.388;2024-02-14T07:55:21;99175.41;;;-13.57;62.95
50292;BME280;36190;54.980;73.388;2024-02-14T07:57:50;99202.38;;;-13.72;62.84
50292;BME280;36190;54.980;73.388;2024-02-14T08:00:18;99204.59;;;-13.89;61.69
50292;BME280;36190;54.980;73.388;2024-02-14T08:02:48;99200.16;;;-14.16;61.63
50292;BME280;36190;54.980;73.388;2024-02-14T08:05:16;99242.88;;;-14.16;61.94
50292;BME280;36190;54.980;73.388;2024-02-14T08:07:46;99271.06;;;-14.15;61.69
50292;BME280;36190;54.980;73.388;2024-02-14T08:10:14;99237.56;;;-14.08;61.45
50292;BME280;36190;54.980;73.388;2024-02-14T08:12:41;99227.25;;;-14.07;61.00
50292;BME280;36190;54.980;73.388;2024-02-14T08:15:09;99248.72;;;-14.10;61.03
50292;BME280;36190;54.980;73.388;2024-02-14T08:17:37;99277.78;;;-14.11;60.88
50292;BME280;36190;54.980;73.388;2024-02-14T08:20:06;99305.84;;;-14.06;60.92
50292;BME280;36190;54.980;73.388;2024-02-14T08:22:34;99288.13;;;-14.14;60.11
50292;BME280;36190;54.980;73.388;2024-02-14T08:25:03;99358.56;;;-14.30;59.30
50292;BME280;36190;54.980;73.388;2024-02-14T08:27:31;99281.97;;;-14.43;59.10
50292;BME280;36190;54.980;73.388;2024-02-14T08:29:59;99311.59;;;-14.66;59.08
50292;BME280;36190;54.980;73.388;2024-02-14T08:32:27;99322.06;;;-14.75;59.05
50292;BME280;36190;54.980;73.388;2024-02-14T08:34:54;99319.75;;;-14.86;59.40
50292;BME280;36190;54.980;73.388;2024-02-14T08:37:22;99321.63;;;-14.94;59.33
50292;BME280;36190;54.980;73.388;2024-02-14T08:39:50;99306.66;;;-15.13;58.94
50292;BME280;36190;54.980;73.388;2024-02-14T08:42:19;99339.31;;;-15.23;58.73
50292;BME280;36190;54.980;73.388;2024-02-14T08:44:47;99338.47;;;-15.25;58.84
50292;BME280;36190;54.980;73.388;2024-02-14T08:47:15;99391.41;;;-15.27;57.59
50292;BME280;36190;54.980;73.388;2024-02-14T08:49:43;99371.66;;;-15.66;57.61
50292;BME280;36190;54.980;73.388;2024-02-14T08:52:11;99371.94;;;-15.80;58.01
50292;BME280;36190;54.980;73.388;2024-02-14T08:54:38;99371.22;;;-15.88;58.64
50292;BME280;36190;54.980;73.388;2024-02-14T08:57:06;99364.00;;;-15.67;59.02
50292;BME280;36190;54.980;73.388;2024-02-14T08:59:35;99394.13;;;-15.36;59.02
50292;BME280;36190;54.980;73.388;2024-02-14T09:02:03;99376.03;;;-15.27;57.60
50292;BME280;36190;54.980;73.388;2024-02-14T09:04:31;99410.72;;;-15.56;57.36
50292;BME280;36190;54.980;73.388;2024-02-14T09:06:59;99391.97;;;-15.58;57.62
50292;BME280;36190;54.980;73.388;2024-02-14T09:09:27;99394.44;;;-15.53;57.32
50292;BME280;36190;54.980;73.388;2024-02-14T09:11:54;99468.00;;;-15.66;56.85
50292;BME280;36190;54.980;73.388;2024-02-14T09:14:22;99412.94;;;-15.87;56.65
50292;BME280;36190;54.980;73.388;2024-02-14T09:16:51;99413.16;;;-15.98;57.09
50292;BME280;36190;54.980;73.388;2024-02-14T09:19:19;99429.88;;;-15.82;57.52
50292;BME280;36190;54.980;73.388;2024-02-14T09:21:47;99450.09;;;-15.66;57.23
50292;BME280;36190;54.980;73.388;2024-02-14T09:24:15;99434.88;;;-15.72;56.81
50292;BME280;36190;54.980;73.388;2024-02-14T09:26:42;99435.13;;;-15.88;56.33
50292;BME280;36190;54.980;73.388;2024-02-14T09:29:11;99508.81;;;-16.15;55.76
50292;BME280;36190;54.980;73.388;2024-02-14T09:31:41;99443.06;;;-16.62;56.09
50292;BME280;36190;54.980;73.388;2024-02-14T09:34:14;99455.19;;;-16.79;57.50
50292;BME280;36190;54.980;73.388;2024-02-14T09:36:44;99461.19;;;-16.83;57.47
50292;BME280;36190;54.980;73.388;2024-02-14T09:39:11;99472.38;;;-16.94;57.53
50292;BME280;36190;54.980;73.388;2024-02-14T09:41:44;99497.03;;;-16.93;56.92
50292;BME280;36190;54.980;73.388;2024-02-14T09:44:14;99553.22;;;-16.99;56.81
50292;BME280;36190;54.980;73.388;2024-02-14T09:46:42;99479.44;;;-17.15;56.57
50292;BME280;36190;54.980;73.388;2024-02-14T09:49:10;99494.72;;;-17.15;56.89
50292;BME280;36190;54.980;73.388;2024-02-14T09:51:41;99505.50;;;-16.91;57.20
50292;BME280;36190;54.980;73.388;2024-02-14T09:54:10;99496.09;;;-16.87;56.75
50292;BME280;36190;54.980;73.388;2024-02-14T09:56:39;99535.19;;;-16.83;56.69
50292;BME280;36190;54.980;73.388;2024-02-14T09:59:07;99518.97;;;-16.78;56.89
50292;BME280;36190;54.980;73.388;2024-02-14T10:01:35;99510.31;;;-16.63;56.78
50292;BME280;36190;54.980;73.388;2024-02-14T10:04:04;99555.41;;;-16.62;56.16
50292;BME280;36190;54.980;73.388;2024-02-14T10:06:31;99540.19;;;-16.74;55.64
50292;BME280;36190;54.980;73.388;2024-02-14T10:09:01;99538.56;;;-16.80;55.63
50292;BME280;36190;54.980;73.388;2024-02-14T10:11:30;99570.06;;;-16.82;55.75
50292;BME280;36190;54.980;73.388;2024-02-14T10:13:58;99545.34;;;-16.79;55.86
50292;BME280;36190;54.980;73.388;2024-02-14T10:16:28;99551.16;;;-16.66;55.56
50292;BME280;36190;54.980;73.388;2024-02-14T10:18:56;99549.69;;;-16.87;55.20
50292;BME280;36190;54.980;73.388;2024-02-14T10:21:24;99572.00;;;-17.02;55.76
50292;BME280;36190;54.980;73.388;2024-02-14T10:23:52;99581.47;;;-17.15;55.82
50292;BME280;36190;54.980;73.388;2024-02-14T10:26:24;99575.59;;;-17.23;56.18
50292;BME280;36190;54.980;73.388;2024-02-14T10:28:52;99573.69;;;-17.01;56.63
50292;BME280;36190;54.980;73.388;2024-02-14T10:31:24;99594.72;;;-16.78;56.43
50292;BME280;36190;54.980;73.388;2024-02-14T10:33:53;99608.34;;;-16.79;56.50
50292;BME280;36190;54.980;73.388;2024-02-14T10:36:22;99606.09;;;-17.10;56.37
50292;BME280;36190;54.980;73.388;2024-02-14T10:38:51;99608.94;;;-17.48;56.64
50292;BME280;36190;54.980;73.388;2024-02-14T10:41:18;99635.34;;;-17.55;57.02
50292;BME280;36190;54.980;73.388;2024-02-14T10:43:47;99660.03;;;-17.63;56.05
50292;BME280;36190;54.980;73.388;2024-02-14T10:46:19;99662.81;;;-18.04;55.70
50292;BME280;36190;54.980;73.388;2024-02-14T10:48:50;99645.88;;;-18.20;55.58
50292;BME280;36190;54.980;73.388;2024-02-14T10:51:21;99705.31;;;-18.21;55.78
50292;BME280;36190;54.980;73.388;2024-02-14T10:53:52;99659.47;;;-18.21;55.65
50292;BME280;36190;54.980;73.388;2024-02-14T10:56:22;99666.22;;;-18.11;55.49
50292;BME280;36190;54.980;73.388;2024-02-14T10:58:56;99692.56;;;-18.09;55.63
50292;BME280;36190;54.980;73.388;2024-02-14T11:01:25;99683.25;;;-18.16;55.36
50292;BME280;36190;54.980;73.388;2024-02-14T11:03:54;99698.50;;;-18.12;55.72
50292;BME280;36190;54.980;73.388;2024-02-14T11:06:24;99697.69;;;-18.18;55.89
50292;BME280;36190;54.980;73.388;2024-02-14T11:09:02;99731.63;;;-18.16;56.07
50292;BME280;36190;54.980;73.388;2024-02-14T11:11:33;99699.38;;;-18.27;55.49
50292;BME280;36190;54.980;73.388;2024-02-14T11:14:03;99720.69;;;-18.54;55.27
50292;BME280;36190;54.980;73.388;2024-02-14T11:16:31;99719.00;;;-18.92;55.10
50292;BME280;36190;54.980;73.388;2024-02-14T11:19:09;99702.03;;;-19.22;55.39
50292;BME280;36190;54.980;73.388;2024-02-14T11:21:40;99746.06;;;-19.41;55.80
50292;BME280;36190;54.980;73.388;2024-02-14T11:24:10;99728.22;;;-19.58;56.00
50292;BME280;36190;54.980;73.388;2024-02-14T11:26:46;99734.09;;;-19.78;56.12
50292;BME280;36190;54.980;73.388;2024-02-14T11:29:16;99738.31;;;-19.89;56.21
50292;BME280;36190;54.980;73.388;2024-02-14T11:31:44;99747.56;;;-20.04;56.59
50292;BME280;36190;54.980;73.388;2024-02-14T11:34:14;99735.69;;;-20.08;56.67
50292;BME280;36190;54.980;73.388;2024-02-14T11:36:42;99731.44;;;-20.17;56.84
50292;BME280;36190;54.980;73.388;2024-02-14T11:39:10;99755.09;;;-20.23;56.72
50292;BME280;36190;54.980;73.388;2024-02-14T11:41:39;99744.88;;;-20.34;56.71
50292;BME280;36190;54.980;73.388;2024-02-14T11:44:08;99754.09;;;-20.43;56.83
50292;BME280;36190;54.980;73.388;2024-02-14T11:46:40;99776.88;;;-20.53;56.89
50292;BME280;36190;54.980;73.388;2024-02-14T11:49:08;99775.13;;;-20.63;57.08
50292;BME280;36190;54.980;73.388;2024-02-14T11:51:36;99786.03;;;-20.72;57.36
50292;BME280;36190;54.980;73.388;2024-02-14T11:54:05;99791.94;;;-20.75;57.62
50292;BME280;36190;54.980;73.388;2024-02-14T11:56:35;99802.06;;;-20.78;57.67
50292;BME280;36190;54.980;73.388;2024-02-14T11:59:05;99796.16;;;-20.75;58.01
50292;BME280;36190;54.980;73.388;2024-02-14T12:01:34;99821.53;;;-20.74;57.93
50292;BME280;36190;54.980;73.388;2024-02-14T12:04:05;99825.69;;;-20.82;57.87
50292;BME280;36190;54.980;73.388;2024-02-14T12:06:35;99843.47;;;-20.83;58.06
50292;BME280;36190;54.980;73.388;2024-02-14T12:09:04;99812.94;;;-20.91;58.21
50292;BME280;36190;54.980;73.388;2024-02-14T12:11:33;99845.88;;;-20.94;58.37
50292;BME280;36190;54.980;73.388;2024-02-14T12:14:03;99846.69;;;-20.98;58.64
50292;BME280;36190;54.980;73.388;2024-02-14T12:16:34;99865.28;;;-20.96;58.80
50292;BME280;36190;54.980;73.388;2024-02-14T12:19:07;99858.47;;;-21.04;58.83
50292;BME280;36190;54.980;73.388;2024-02-14T12:21:36;99871.09;;;-21.07;59.02
50292;BME280;36190;54.980;73.388;2024-02-14T12:24:06;99864.25;;;-21.14;59.07
50292;BME280;36190;54.980;73.388;2024-02-14T12:26:35;99872.63;;;-21.21;59.14
50292;BME280;36190;54.980;73.388;2024-02-14T12:29:03;99891.94;;;-21.31;59.44
50292;BME280;36190;54.980;73.388;2024-02-14T12:31:31;99872.38;;;-21.43;59.34
50292;BME280;36190;54.980;73.388;2024-02-14T12:33:59;99894.34;;;-21.42;59.44
50292;BME280;36190;54.980;73.388;2024-02-14T12:36:29;99901.13;;;-21.41;59.53
50292;BME280;36190;54.980;73.388;2024-02-14T12:38:57;99925.63;;;-21.40;59.63
50292;BME280;36190;54.980;73.388;2024-02-14T12:41:25;99929.78;;;-21.45;59.55
50292;BME280;36190;54.980;73.388;2024-02-14T12:43:55;99929.72;;;-21.48;59.54
50292;BME280;36190;54.980;73.388;2024-02-14T12:46:23;99935.66;;;-21.48;59.49
50292;BME280;36190;54.980;73.388;2024-02-14T12:48:51;99945.75;;;-21.49;59.49